createdAt,value
2022-09-27T00:02:27.007Z,11.90
2022-09-27T00:04:58.497Z,11.90
2022-09-27T00:07:25.795Z,11.90
2022-09-27T00:09:52.870Z,11.90
2022-09-27T00:12:20.686Z,11.90
2022-09-27T00:14:47.982Z,11.90
2022-09-27T00:17:15.174Z,11.90
2022-09-27T00:19:44.999Z,11.80
2022-09-27T00:22:14.435Z,11.80
2022-09-27T00:24:46.914Z,11.80
2022-09-27T00:27:14.239Z,11.80
2022-09-27T00:29:44.910Z,11.80
2022-09-27T00:32:14.792Z,11.80
2022-09-27T00:34:44.834Z,11.80
2022-09-27T00:37:14.049Z,11.80
2022-09-27T00:39:43.391Z,11.70
2022-09-27T00:42:15.150Z,11.80
2022-09-27T00:44:44.355Z,11.70
2022-09-27T00:47:25.118Z,11.70
2022-09-27T00:50:38.321Z,11.70
2022-09-27T00:53:17.715Z,11.70
2022-09-27T00:56:04.756Z,11.70
2022-09-27T00:58:39.795Z,11.70
2022-09-27T01:01:13.772Z,11.70
2022-09-27T01:03:56.661Z,11.70
2022-09-27T01:06:26.268Z,11.70
2022-09-27T01:08:55.787Z,11.70
2022-09-27T01:11:30.726Z,11.70
2022-09-27T01:14:11.207Z,11.70
2022-09-27T01:16:46.650Z,11.70
2022-09-27T01:19:34.450Z,11.80
2022-09-27T01:22:08.226Z,11.90
2022-09-27T01:25:09.403Z,11.90
2022-09-27T01:28:00.123Z,11.90
2022-09-27T01:30:43.267Z,12.00
2022-09-27T01:33:39.897Z,12.00
2022-09-27T01:36:27.766Z,12.00
2022-09-27T01:39:01.412Z,12.00
2022-09-27T01:41:57.639Z,12.00
2022-09-27T01:44:49.064Z,12.00
2022-09-27T01:47:31.985Z,12.00
2022-09-27T01:50:25.517Z,12.00
2022-09-27T01:53:05.046Z,12.00
2022-09-27T01:55:41.442Z,12.10
2022-09-27T01:58:33.971Z,12.10
2022-09-27T02:01:03.364Z,12.10
2022-09-27T02:03:36.075Z,12.10
2022-09-27T02:06:41.222Z,12.10
2022-09-27T02:09:29.002Z,12.10
2022-09-27T02:12:24.081Z,12.20
2022-09-27T02:14:57.789Z,12.20
2022-09-27T02:17:52.001Z,12.10
2022-09-27T02:20:28.661Z,12.10
2022-09-27T02:23:01.960Z,12.10
2022-09-27T02:25:48.394Z,12.10
2022-09-27T02:28:22.481Z,12.00
2022-09-27T02:30:56.017Z,12.00
2022-09-27T02:33:31.711Z,12.00
2022-09-27T02:35:59.653Z,12.00
2022-09-27T02:38:27.042Z,11.90
2022-09-27T02:40:57.292Z,11.90
2022-09-27T02:43:29.186Z,11.90
2022-09-27T02:46:16.747Z,11.90
2022-09-27T02:49:27.678Z,12.00
2022-09-27T02:52:54.194Z,11.90
2022-09-27T02:55:31.303Z,11.90
2022-09-27T02:58:33.785Z,11.90
2022-09-27T03:01:47.558Z,11.80
2022-09-27T03:04:48.880Z,11.80
2022-09-27T03:07:16.685Z,11.80
2022-09-27T03:09:46.285Z,11.80
2022-09-27T03:12:13.814Z,11.80
2022-09-27T03:14:43.803Z,11.80
2022-09-27T03:17:30.944Z,11.80
2022-09-27T03:20:17.951Z,11.80
2022-09-27T03:23:07.012Z,11.80
2022-09-27T03:25:34.407Z,11.70
2022-09-27T03:28:03.974Z,11.60
2022-09-27T03:30:32.151Z,11.60
2022-09-27T03:32:59.505Z,11.60
2022-09-27T03:35:49.508Z,11.60
2022-09-27T03:38:19.460Z,11.50
2022-09-27T03:40:49.021Z,11.60
2022-09-27T03:43:16.440Z,11.50
2022-09-27T03:45:46.151Z,11.50
2022-09-27T03:48:15.672Z,11.60
2022-09-27T03:50:45.188Z,11.60
2022-09-27T03:53:12.570Z,11.50
2022-09-27T03:55:39.693Z,11.40
2022-09-27T03:58:07.169Z,11.50
2022-09-27T04:00:37.281Z,11.40
2022-09-27T04:03:06.656Z,11.50
2022-09-27T04:05:55.138Z,11.50
2022-09-27T04:08:32.995Z,11.40
2022-09-27T04:11:00.362Z,11.50
2022-09-27T04:13:27.722Z,11.50
2022-09-27T04:15:56.748Z,11.50
2022-09-27T04:18:33.390Z,11.50
2022-09-27T04:21:23.886Z,11.50
2022-09-27T04:23:56.202Z,11.40
2022-09-27T04:26:26.691Z,11.40
2022-09-27T04:29:04.432Z,11.30
2022-09-27T04:31:40.093Z,11.40
2022-09-27T04:34:46.536Z,11.30
2022-09-27T04:37:23.200Z,11.30
2022-09-27T04:39:56.765Z,11.30
2022-09-27T04:42:28.691Z,11.30
2022-09-27T04:44:56.250Z,11.30
2022-09-27T04:47:25.695Z,11.30
2022-09-27T04:49:55.095Z,11.30
2022-09-27T04:52:24.553Z,11.40
2022-09-27T04:54:56.187Z,11.40
2022-09-27T04:57:23.410Z,11.40
2022-09-27T04:59:51.596Z,11.40
2022-09-27T05:02:18.925Z,11.40
2022-09-27T05:05:01.536Z,11.50
2022-09-27T05:07:38.182Z,11.50
2022-09-27T05:10:10.830Z,11.50
2022-09-27T05:12:38.073Z,11.50
2022-09-27T05:15:08.728Z,11.50
2022-09-27T05:17:58.774Z,11.50
2022-09-27T05:20:47.856Z,11.50
2022-09-27T05:23:21.910Z,11.40
2022-09-27T05:25:49.137Z,11.40
2022-09-27T05:28:24.116Z,11.40
2022-09-27T05:30:56.615Z,11.50
2022-09-27T05:33:26.136Z,11.50
2022-09-27T05:36:20.447Z,11.60
2022-09-27T05:38:49.841Z,11.60
2022-09-27T05:41:21.195Z,11.60
2022-09-27T05:43:49.284Z,11.60
2022-09-27T05:46:17.017Z,11.60
2022-09-27T05:48:45.053Z,11.70
2022-09-27T05:51:12.158Z,11.70
2022-09-27T05:53:40.791Z,11.70
2022-09-27T05:56:15.611Z,11.70
2022-09-27T05:59:08.350Z,11.70
2022-09-27T06:01:55.789Z,11.80
2022-09-27T06:04:41.403Z,11.80
2022-09-27T06:07:32.319Z,11.80
2022-09-27T06:10:03.794Z,11.90
2022-09-27T06:12:34.033Z,12.00
2022-09-27T06:15:02.347Z,12.00
2022-09-27T06:17:46.986Z,12.10
2022-09-27T06:20:19.307Z,12.10
2022-09-27T06:22:49.248Z,12.20
2022-09-27T06:25:17.340Z,12.20
2022-09-27T06:28:01.029Z,12.20
2022-09-27T06:30:31.641Z,12.20
2022-09-27T06:33:06.752Z,12.20
2022-09-27T06:35:42.435Z,12.20
2022-09-27T06:38:15.630Z,12.30
2022-09-27T06:40:49.897Z,12.30
2022-09-27T06:43:22.450Z,12.40
2022-09-27T06:46:22.255Z,12.40
2022-09-27T06:49:07.891Z,12.50
2022-09-27T06:51:35.881Z,12.50
2022-09-27T06:54:03.073Z,12.50
2022-09-27T06:56:32.545Z,12.50
2022-09-27T06:59:19.377Z,12.50
2022-09-27T07:01:52.560Z,12.60
2022-09-27T07:04:43.182Z,12.70
2022-09-27T07:07:20.758Z,12.70
2022-09-27T07:09:49.651Z,12.70
2022-09-27T07:12:16.943Z,12.70
2022-09-27T07:14:46.619Z,12.80
2022-09-27T07:17:19.272Z,12.80
2022-09-27T07:19:51.304Z,12.80
2022-09-27T07:22:18.761Z,12.80
2022-09-27T07:24:54.239Z,12.80
2022-09-27T07:27:26.718Z,12.90
2022-09-27T07:29:56.872Z,12.90
2022-09-27T07:32:25.425Z,12.90
2022-09-27T07:34:54.900Z,12.90
2022-09-27T07:37:25.136Z,12.90
2022-09-27T07:39:55.450Z,13.00
2022-09-27T07:42:28.789Z,13.10
2022-09-27T07:44:57.473Z,13.20
2022-09-27T07:47:30.500Z,13.20
2022-09-27T07:50:13.694Z,13.20
2022-09-27T07:52:47.942Z,13.20
2022-09-27T07:55:37.736Z,13.30
2022-09-27T07:58:22.236Z,13.40
2022-09-27T08:00:51.754Z,13.40
2022-09-27T08:03:21.580Z,13.50
2022-09-27T08:05:51.208Z,13.50
2022-09-27T08:08:18.727Z,13.60
2022-09-27T08:10:48.277Z,13.60
2022-09-27T08:13:20.384Z,13.60
2022-09-27T08:15:52.855Z,13.60
2022-09-27T08:18:25.969Z,13.70
2022-09-27T08:21:00.054Z,13.80
2022-09-27T08:23:31.053Z,13.90
2022-09-27T08:26:20.770Z,14.00
2022-09-27T08:28:56.456Z,14.10
2022-09-27T08:31:26.666Z,14.00
2022-09-27T08:33:58.410Z,14.10
2022-09-27T08:36:28.807Z,14.10
2022-09-27T08:39:00.777Z,14.10
2022-09-27T08:42:14.680Z,14.10
2022-09-27T08:45:08.188Z,14.10
2022-09-27T08:47:55.142Z,14.20
2022-09-27T08:50:41.883Z,14.30
2022-09-27T08:53:33.998Z,14.40
2022-09-27T08:56:03.779Z,14.40
2022-09-27T08:58:49.326Z,14.40
2022-09-27T09:01:25.167Z,14.40
2022-09-27T09:04:46.396Z,14.50
2022-09-27T09:07:24.543Z,14.60
2022-09-27T09:10:36.401Z,14.60
2022-09-27T09:13:29.899Z,14.70
2022-09-27T09:16:13.967Z,14.80
2022-09-27T09:19:32.722Z,14.90
2022-09-27T09:22:39.258Z,14.70
2022-09-27T09:25:55.201Z,14.60
2022-09-27T09:28:41.804Z,14.60
2022-09-27T09:31:13.014Z,14.70
2022-09-27T09:33:50.740Z,14.80
2022-09-27T09:36:46.222Z,14.90
2022-09-27T09:39:29.338Z,15.10
2022-09-27T09:42:09.216Z,15.10
2022-09-27T09:45:06.472Z,15.20
2022-09-27T09:47:45.485Z,15.30
2022-09-27T09:50:31.018Z,15.40
2022-09-27T09:53:21.703Z,15.40
2022-09-27T09:56:05.782Z,15.50
2022-09-27T09:58:42.314Z,15.50
2022-09-27T10:01:46.153Z,15.40
2022-09-27T10:04:28.517Z,15.50
2022-09-27T10:07:01.212Z,15.60
2022-09-27T10:09:35.120Z,15.50
2022-09-27T10:12:17.823Z,15.60
2022-09-27T10:14:49.025Z,15.70
2022-09-27T10:17:21.369Z,15.80
2022-09-27T10:19:54.493Z,15.80
2022-09-27T10:22:29.169Z,15.70
2022-09-27T10:25:07.281Z,15.80
2022-09-27T10:27:56.116Z,15.80
2022-09-27T10:30:34.613Z,15.80
2022-09-27T10:33:26.662Z,16.00
2022-09-27T10:36:03.938Z,16.00
2022-09-27T10:38:37.046Z,16.10
2022-09-27T10:41:38.672Z,16.20
2022-09-27T10:44:17.754Z,16.10
2022-09-27T10:46:50.987Z,16.20
2022-09-27T10:49:41.619Z,16.20
2022-09-27T10:52:42.664Z,16.20
2022-09-27T10:55:28.431Z,16.30
2022-09-27T10:57:56.802Z,16.30
2022-09-27T11:00:37.747Z,16.40
2022-09-27T11:05:45.333Z,17.20
2022-09-27T11:08:23.939Z,16.70
2022-09-27T11:11:17.659Z,16.90
2022-09-27T11:13:58.057Z,16.80
2022-09-27T11:16:48.344Z,16.80
2022-09-27T11:19:25.005Z,16.80
2022-09-27T11:22:03.830Z,16.70
2022-09-27T11:25:00.883Z,16.50
2022-09-27T11:27:57.310Z,16.60
2022-09-27T11:30:42.134Z,16.60
2022-09-27T11:33:41.359Z,16.60
2022-09-27T11:36:39.181Z,16.60
2022-09-27T11:39:18.736Z,16.70
2022-09-27T11:42:23.730Z,16.70
2022-09-27T11:45:27.883Z,16.70
2022-09-27T11:48:01.611Z,16.80
2022-09-27T11:51:06.754Z,16.90
2022-09-27T11:53:46.306Z,16.90
2022-09-27T11:56:18.985Z,16.90
2022-09-27T11:59:05.249Z,16.90
2022-09-27T12:01:54.438Z,16.90
2022-09-27T12:04:49.992Z,16.90
2022-09-27T12:07:24.715Z,17.00
2022-09-27T12:10:01.326Z,17.00
2022-09-27T12:12:36.045Z,17.10
2022-09-27T12:15:09.682Z,17.20
2022-09-27T12:17:44.133Z,17.30
2022-09-27T12:20:25.480Z,17.40
2022-09-27T12:23:09.613Z,17.60
2022-09-27T12:26:05.516Z,17.50
2022-09-27T12:28:47.083Z,17.40
2022-09-27T12:32:00.614Z,17.50
2022-09-27T12:34:46.120Z,17.40
2022-09-27T12:37:25.350Z,17.40
2022-09-27T12:40:06.371Z,17.40
2022-09-27T12:43:12.936Z,17.40
2022-09-27T12:46:07.961Z,17.30
2022-09-27T12:49:06.800Z,17.30
2022-09-27T12:51:52.521Z,17.30
2022-09-27T12:54:46.052Z,17.30
2022-09-27T12:57:18.238Z,17.30
2022-09-27T12:59:50.113Z,17.40
2022-09-27T13:02:29.144Z,17.30
2022-09-27T13:05:20.533Z,17.30
2022-09-27T13:08:14.268Z,17.20
2022-09-27T13:10:52.883Z,17.20
2022-09-27T13:13:34.237Z,17.20
2022-09-27T13:16:07.778Z,17.20
2022-09-27T13:18:49.876Z,17.30
2022-09-27T13:21:56.406Z,17.30
2022-09-27T13:24:43.349Z,17.40
2022-09-27T13:27:42.641Z,17.50
2022-09-27T13:30:19.113Z,17.50
2022-09-27T13:33:09.936Z,17.50
2022-09-27T13:36:20.598Z,17.60
2022-09-27T13:39:01.359Z,17.60
2022-09-27T13:41:46.650Z,17.70
2022-09-27T13:44:34.970Z,17.80
2022-09-27T13:47:11.707Z,17.80
2022-09-27T13:49:42.568Z,17.80
2022-09-27T13:52:33.626Z,17.80
2022-09-27T13:55:45.862Z,17.70
2022-09-27T13:58:37.855Z,17.50
2022-09-27T14:01:29.551Z,17.40
2022-09-27T14:04:18.598Z,17.30
2022-09-27T14:06:57.292Z,17.20
2022-09-27T14:09:31.984Z,17.20
2022-09-27T14:12:19.220Z,17.20
2022-09-27T14:14:49.624Z,17.20
2022-09-27T14:17:20.131Z,17.20
2022-09-27T14:19:51.255Z,17.20
2022-09-27T14:22:23.707Z,17.20
2022-09-27T14:24:57.870Z,17.20
2022-09-27T14:27:36.977Z,17.20
2022-09-27T14:30:21.869Z,17.10
2022-09-27T14:33:28.673Z,17.10
2022-09-27T14:36:16.098Z,17.00
2022-09-27T14:38:48.270Z,17.00
2022-09-27T14:41:27.809Z,16.90
2022-09-27T14:43:56.290Z,16.90
2022-09-27T14:46:29.938Z,16.80
2022-09-27T14:48:57.957Z,16.80
2022-09-27T14:51:32.657Z,16.70
2022-09-27T14:54:01.466Z,16.70
2022-09-27T14:56:38.056Z,16.60
2022-09-27T14:59:16.240Z,16.60
2022-09-27T15:01:53.271Z,16.60
2022-09-27T15:04:23.416Z,16.50
2022-09-27T15:06:51.953Z,16.40
2022-09-27T15:09:23.023Z,16.30
2022-09-27T15:11:57.256Z,16.30
2022-09-27T15:14:26.003Z,16.30
2022-09-27T15:16:53.275Z,16.20
2022-09-27T15:19:24.172Z,16.20
2022-09-27T15:21:54.458Z,16.10
2022-09-27T15:24:39.478Z,16.10
2022-09-27T15:27:23.782Z,16.00
2022-09-27T15:29:54.698Z,16.00
2022-09-27T15:32:24.193Z,16.00
2022-09-27T15:34:51.560Z,16.00
2022-09-27T15:37:35.418Z,16.00
2022-09-27T15:40:39.679Z,16.00
2022-09-27T15:43:23.131Z,15.90
2022-09-27T15:45:52.745Z,15.80
2022-09-27T15:48:21.158Z,15.70
2022-09-27T15:50:50.103Z,15.70
2022-09-27T15:53:35.874Z,15.70
2022-09-27T15:56:08.739Z,15.60
2022-09-27T15:58:41.181Z,15.60
2022-09-27T16:01:15.347Z,15.60
2022-09-27T16:03:50.511Z,15.50
2022-09-27T16:06:20.951Z,15.50
2022-09-27T16:08:48.445Z,15.40
2022-09-27T16:11:18.023Z,15.40
2022-09-27T16:13:45.150Z,15.40
2022-09-27T16:16:19.414Z,15.40
2022-09-27T16:18:47.325Z,15.30
2022-09-27T16:21:15.154Z,15.10
2022-09-27T16:23:42.543Z,15.10
2022-09-27T16:26:09.696Z,15.00
2022-09-27T16:28:37.104Z,14.90
2022-09-27T16:31:11.402Z,14.80
2022-09-27T16:33:38.926Z,14.70
2022-09-27T16:36:14.315Z,14.70
2022-09-27T16:38:44.586Z,14.60
2022-09-27T16:41:11.690Z,14.40
2022-09-27T16:43:40.962Z,14.20
2022-09-27T16:46:18.566Z,14.10
2022-09-27T16:48:49.191Z,14.00
2022-09-27T16:51:36.625Z,14.00
2022-09-27T16:54:05.892Z,13.90
2022-09-27T16:56:37.106Z,13.90
2022-09-27T16:59:09.731Z,13.90
2022-09-27T17:01:37.311Z,13.80
2022-09-27T17:04:07.212Z,13.80
2022-09-27T17:06:35.996Z,13.80
2022-09-27T17:09:07.833Z,13.70
2022-09-27T17:11:37.544Z,13.40
2022-09-27T17:14:14.563Z,13.30
2022-09-27T17:16:45.543Z,13.20
2022-09-27T17:19:14.062Z,13.10
2022-09-27T17:21:42.370Z,13.00
2022-09-27T17:24:12.855Z,13.00
2022-09-27T17:26:40.723Z,13.00
2022-09-27T17:29:10.503Z,12.90
2022-09-27T17:31:41.633Z,12.90
2022-09-27T17:34:12.177Z,12.90
2022-09-27T17:36:48.174Z,12.80
2022-09-27T17:39:18.651Z,12.80
2022-09-27T17:41:49.897Z,12.70
2022-09-27T17:44:20.349Z,12.70
2022-09-27T17:47:09.893Z,12.70
2022-09-27T17:49:58.466Z,12.60
2022-09-27T17:52:28.701Z,12.60
2022-09-27T17:54:59.153Z,12.60
2022-09-27T17:57:26.508Z,12.60
2022-09-27T17:59:57.791Z,12.50
2022-09-27T18:02:30.101Z,12.60
2022-09-27T18:05:02.498Z,12.70
2022-09-27T18:07:33.458Z,12.70
2022-09-27T18:10:05.724Z,12.70
2022-09-27T18:12:34.756Z,12.70
2022-09-27T18:15:02.677Z,12.70
2022-09-27T18:17:32.788Z,12.70
2022-09-27T18:20:03.933Z,12.70
2022-09-27T18:22:33.375Z,12.70
2022-09-27T18:25:05.418Z,12.60
2022-09-27T18:27:34.565Z,12.70
2022-09-27T18:30:03.387Z,12.60
2022-09-27T18:32:33.497Z,12.70
2022-09-27T18:35:00.690Z,12.70
2022-09-27T18:37:30.391Z,12.70
2022-09-27T18:39:57.460Z,12.70
2022-09-27T18:42:26.699Z,12.70
2022-09-27T18:44:57.013Z,12.80
2022-09-27T18:47:29.551Z,12.70
2022-09-27T18:49:56.883Z,12.70
2022-09-27T18:52:25.469Z,12.70
2022-09-27T18:54:55.314Z,12.70
2022-09-27T18:57:24.494Z,12.70
2022-09-27T18:59:51.980Z,12.70
2022-09-27T19:02:21.382Z,12.70
2022-09-27T19:04:48.731Z,12.70
2022-09-27T19:07:18.359Z,12.70
2022-09-27T19:09:48.124Z,12.70
2022-09-27T19:12:17.748Z,12.70
2022-09-27T19:14:45.117Z,12.60
2022-09-27T19:17:12.230Z,12.60
2022-09-27T19:19:39.818Z,12.60
2022-09-27T19:22:07.774Z,12.60
2022-09-27T19:24:34.882Z,12.60
2022-09-27T19:27:04.354Z,12.60
2022-09-27T19:29:35.000Z,12.60
2022-09-27T19:32:04.371Z,12.60
2022-09-27T19:34:33.844Z,12.70
2022-09-27T19:37:03.222Z,12.60
2022-09-27T19:39:32.983Z,12.60
2022-09-27T19:42:00.072Z,12.60
2022-09-27T19:44:27.567Z,12.60
2022-09-27T19:46:55.356Z,12.60
2022-09-27T19:49:27.115Z,12.60
2022-09-27T19:51:56.692Z,12.60
2022-09-27T19:54:23.894Z,12.50
2022-09-27T19:56:50.977Z,12.50
2022-09-27T19:59:20.854Z,12.50
2022-09-27T20:01:48.543Z,12.50
2022-09-27T20:04:18.577Z,12.50
2022-09-27T20:06:50.608Z,12.50
2022-09-27T20:09:20.162Z,12.50
2022-09-27T20:11:47.748Z,12.50
2022-09-27T20:14:17.146Z,12.50
2022-09-27T20:16:44.647Z,12.60
2022-09-27T20:19:12.365Z,12.60
2022-09-27T20:21:39.871Z,12.50
2022-09-27T20:24:07.104Z,12.50
2022-09-27T20:26:37.983Z,12.50
2022-09-27T20:29:06.778Z,12.50
2022-09-27T20:32:02.982Z,12.40
2022-09-27T20:34:33.073Z,12.40
2022-09-27T20:37:00.244Z,12.40
2022-09-27T20:39:34.110Z,12.40
2022-09-27T20:42:01.573Z,12.50
2022-09-27T20:44:28.722Z,12.40
2022-09-27T20:46:55.938Z,12.40
2022-09-27T20:49:28.165Z,12.50
2022-09-27T20:51:55.279Z,12.40
2022-09-27T20:54:24.639Z,12.40
2022-09-27T20:56:52.702Z,12.40
2022-09-27T20:59:23.329Z,12.40
2022-09-27T21:01:53.654Z,12.40
2022-09-27T21:04:22.389Z,12.40
2022-09-27T21:06:49.647Z,12.40
2022-09-27T21:09:19.378Z,12.40
2022-09-27T21:11:48.443Z,12.30
2022-09-27T21:14:16.089Z,12.30
2022-09-27T21:16:43.421Z,12.30
2022-09-27T21:19:11.292Z,12.30
2022-09-27T21:21:40.995Z,12.30
2022-09-27T21:24:08.530Z,12.30
2022-09-27T21:26:36.298Z,12.30
2022-09-27T21:29:08.850Z,12.30
2022-09-27T21:31:38.987Z,12.40
2022-09-27T21:34:09.513Z,12.40
2022-09-27T21:36:42.327Z,12.30
2022-09-27T21:39:10.207Z,12.30
2022-09-27T21:41:40.627Z,12.40
2022-09-27T21:44:08.437Z,12.30
2022-09-27T21:46:40.434Z,12.40
2022-09-27T21:49:07.665Z,12.40
2022-09-27T21:51:40.243Z,12.40
2022-09-27T21:54:10.111Z,12.40
2022-09-27T21:56:40.073Z,12.40
2022-09-27T21:59:12.119Z,12.40
2022-09-27T22:01:39.655Z,12.40
2022-09-27T22:04:07.209Z,12.40
2022-09-27T22:06:36.831Z,12.40
2022-09-27T22:09:07.114Z,12.40
2022-09-27T22:11:42.494Z,12.40
2022-09-27T22:14:11.001Z,12.40
2022-09-27T22:16:45.958Z,12.40
2022-09-27T22:19:18.437Z,12.40
2022-09-27T22:21:46.209Z,12.40
2022-09-27T22:24:16.559Z,12.40
2022-09-27T22:26:50.458Z,12.40
2022-09-27T22:29:22.410Z,12.40
2022-09-27T22:31:49.612Z,12.40
2022-09-27T22:34:28.069Z,12.50
2022-09-27T22:36:57.598Z,12.40
2022-09-27T22:39:27.070Z,12.50
2022-09-27T22:41:54.261Z,12.50
2022-09-27T22:44:24.167Z,12.40
2022-09-27T22:46:51.512Z,12.40
2022-09-27T22:49:18.804Z,12.50
2022-09-27T22:51:46.456Z,12.40
2022-09-27T22:54:13.778Z,12.40
2022-09-27T22:56:40.881Z,12.40
2022-09-27T22:59:12.745Z,12.30
2022-09-27T23:01:45.691Z,12.30
2022-09-27T23:04:14.294Z,12.20
2022-09-27T23:06:42.758Z,12.20
2022-09-27T23:09:12.653Z,12.20
2022-09-27T23:11:43.133Z,12.20
2022-09-27T23:14:12.451Z,12.00
2022-09-27T23:16:42.074Z,11.90
2022-09-27T23:19:11.657Z,11.90
2022-09-27T23:21:42.085Z,11.90
2022-09-27T23:24:10.578Z,11.80
2022-09-27T23:26:40.066Z,11.70
2022-09-27T23:29:07.336Z,11.70
2022-09-27T23:31:37.064Z,11.70
2022-09-27T23:34:04.930Z,11.70
2022-09-27T23:36:32.156Z,11.60
2022-09-27T23:39:01.842Z,11.60
2022-09-27T23:41:29.192Z,11.50
2022-09-27T23:43:56.607Z,11.50
2022-09-27T23:46:25.009Z,11.40
2022-09-27T23:48:53.453Z,11.40
2022-09-27T23:51:23.014Z,11.40
2022-09-27T23:53:52.703Z,11.40
2022-09-27T23:56:22.472Z,11.40
2022-09-27T23:58:54.173Z,11.40
